Vizconde de Eza — EAXB — position and weather

sailwx.info

Track history (hours):
 
Tides and Currents Weather Stations Pressure Air Temp Water Temp Dewpoint Dewpoint Depression Visibility Wind Speed Wind Dir Waves Ship Positions

Oceanographic research ship Vizconde de Eza (Spain)

Detailed information on ship capabilities available from University of Delaware's Ocean Information Center.

Last reported at 2019-Nov-14 10:29 UTC. Time now 2019-Dec-11 10:41 UTC.
Position N 28°21' W 016°00'.
Warning: this ship's position is 27 days out of date.

Length 53 m; draft 5.9 m.

Type: Other ship. MMSI: 224582000.

Date/timePositionNaut miles runAvg speedWind from/ knotsBaromVisibWave heightAir tempDewpointWater temp
2019-Nov-14 10:29N 28°21' W 016°00'4812.0
2019-Nov-14 06:30N 29°02' W 015°32'5512.0
2019-Nov-14 01:55N 29°53' W 015°09'2912.1
2019-Nov-13 23:30N 30°20' W 014°56'48912.2
2019-Nov-12 07:19N 37°53' W 011°14'1710.9
2019-Nov-12 05:45N 38°09' W 011°06'2711.7
2019-Nov-12 03:28N 38°33' W 010°53'1111.8
2019-Nov-12 02:30N 38°44' W 010°47'1212.2
2019-Nov-12 01:30N 38°55' W 010°42'2312.3
2019-Nov-11 23:36N 39°17' W 010°30'  
Track history (hours):
 
Tides and Currents Weather Stations Pressure Air Temp Water Temp Dewpoint Dewpoint Depression Visibility Wind Speed Wind Dir Waves Ship Positions

Oceanographic research ship Vizconde de Eza (Spain)

Detailed information on ship capabilities available from University of Delaware's Ocean Information Center.

Last reported at 2019-Nov-14 10:29 UTC. Time now 2019-Dec-11 10:41 UTC.
Position N 28°21' W 016°00'.
Warning: this ship's position is 27 days out of date.

Length 53 m; draft 5.9 m.

Type: Other ship. MMSI: 224582000.

Date/timePositionNaut miles runAvg speedWind from/ knotsBaromVisibWave heightAir tempDewpointWater temp
2019-Nov-14 10:29N 28°21' W 016°00'4812.0
2019-Nov-14 06:30N 29°02' W 015°32'5512.0
2019-Nov-14 01:55N 29°53' W 015°09'2912.1
2019-Nov-13 23:30N 30°20' W 014°56'48912.2
2019-Nov-12 07:19N 37°53' W 011°14'1710.9
2019-Nov-12 05:45N 38°09' W 011°06'2711.7
2019-Nov-12 03:28N 38°33' W 010°53'1111.8
2019-Nov-12 02:30N 38°44' W 010°47'1212.2
2019-Nov-12 01:30N 38°55' W 010°42'2312.3
2019-Nov-11 23:36N 39°17' W 010°30'  

Dump ship's entire track history